sensor_id;sensor_type;location;lat;lon;timestamp;temperature;humidity
70475;DHT22;57944;48.722;9.316;2022-10-17T00:01:43;13.00;99.90
70475;DHT22;57944;48.722;9.316;2022-10-17T00:04:13;12.90;99.90
70475;DHT22;57944;48.722;9.316;2022-10-17T00:06:46;12.80;99.90
70475;DHT22;57944;48.722;9.316;2022-10-17T00:09:16;12.70;99.90
70475;DHT22;57944;48.722;9.316;2022-10-17T00:11:46;12.70;99.90
70475;DHT22;57944;48.722;9.316;2022-10-17T00:14:16;12.60;99.90
70475;DHT22;57944;48.722;9.316;2022-10-17T00:16:47;12.80;99.90
70475;DHT22;57944;48.722;9.316;2022-10-17T00:19:17;12.90;99.90
70475;DHT22;57944;48.722;9.316;2022-10-17T00:21:50;13.00;99.90
70475;DHT22;57944;48.722;9.316;2022-10-17T00:24:20;13.00;99.90
70475;DHT22;57944;48.722;9.316;2022-10-17T00:26:50;12.80;99.90
70475;DHT22;57944;48.722;9.316;2022-10-17T00:29:20;12.70;99.90
70475;DHT22;57944;48.722;9.316;2022-10-17T00:31:53;12.60;99.90
70475;DHT22;57944;48.722;9.316;2022-10-17T00:34:23;12.50;99.90
70475;DHT22;57944;48.722;9.316;2022-10-17T00:36:56;12.40;99.90
70475;DHT22;57944;48.722;9.316;2022-10-17T00:39:27;12.40;99.90
70475;DHT22;57944;48.722;9.316;2022-10-17T00:41:57;12.50;99.90
70475;DHT22;57944;48.722;9.316;2022-10-17T00:44:59;12.60;99.90
70475;DHT22;57944;48.722;9.316;2022-10-17T00:47:36;12.50;99.90
70475;DHT22;57944;48.722;9.316;2022-10-17T00:50:07;12.50;99.90
70475;DHT22;57944;48.722;9.316;2022-10-17T00:52:42;12.70;99.90
70475;DHT22;57944;48.722;9.316;2022-10-17T00:55:17;12.60;99.90
70475;DHT22;57944;48.722;9.316;2022-10-17T00:57:52;12.50;99.90
70475;DHT22;57944;48.722;9.316;2022-10-17T01:00:23;12.50;99.90
70475;DHT22;57944;48.722;9.316;2022-10-17T01:02:53;12.40;99.90
70475;DHT22;57944;48.722;9.316;2022-10-17T01:05:24;12.30;99.90
70475;DHT22;57944;48.722;9.316;2022-10-17T01:07:57;12.40;99.90
70475;DHT22;57944;48.722;9.316;2022-10-17T01:10:32;12.40;99.90
70475;DHT22;57944;48.722;9.316;2022-10-17T01:13:11;12.50;99.90
70475;DHT22;57944;48.722;9.316;2022-10-17T01:15:55;12.60;99.90
70475;DHT22;57944;48.722;9.316;2022-10-17T01:18:44;12.60;99.90
70475;DHT22;57944;48.722;9.316;2022-10-17T01:21:30;12.40;99.90
70475;DHT22;57944;48.722;9.316;2022-10-17T01:27:42;12.10;99.90
70475;DHT22;57944;48.722;9.316;2022-10-17T01:33:45;12.10;99.90
70475;DHT22;57944;48.722;9.316;2022-10-17T01:36:32;11.90;99.90
70475;DHT22;57944;48.722;9.316;2022-10-17T01:39:14;12.00;99.90
70475;DHT22;57944;48.722;9.316;2022-10-17T01:41:57;11.90;99.90
70475;DHT22;57944;48.722;9.316;2022-10-17T01:44:41;11.80;99.90
70475;DHT22;57944;48.722;9.316;2022-10-17T01:47:24;12.00;99.90
70475;DHT22;57944;48.722;9.316;2022-10-17T01:50:04;11.90;99.90
70475;DHT22;57944;48.722;9.316;2022-10-17T01:52:41;11.80;99.90
70475;DHT22;57944;48.722;9.316;2022-10-17T01:55:19;11.80;99.90
70475;DHT22;57944;48.722;9.316;2022-10-17T01:57:56;11.70;99.90
70475;DHT22;57944;48.722;9.316;2022-10-17T02:00:30;11.70;99.90
70475;DHT22;57944;48.722;9.316;2022-10-17T02:03:08;11.60;99.90
70475;DHT22;57944;48.722;9.316;2022-10-17T02:05:43;11.50;99.90
70475;DHT22;57944;48.722;9.316;2022-10-17T02:08:24;11.40;99.90
70475;DHT22;57944;48.722;9.316;2022-10-17T02:10:58;11.30;99.90
70475;DHT22;57944;48.722;9.316;2022-10-17T02:13:47;11.20;99.90
70475;DHT22;57944;48.722;9.316;2022-10-17T02:16:40;11.30;99.90
70475;DHT22;57944;48.722;9.316;2022-10-17T02:19:53;11.50;99.90
70475;DHT22;57944;48.722;9.316;2022-10-17T02:22:34;11.50;99.90
70475;DHT22;57944;48.722;9.316;2022-10-17T02:25:12;11.40;99.90
70475;DHT22;57944;48.722;9.316;2022-10-17T02:27:54;11.30;99.90
70475;DHT22;57944;48.722;9.316;2022-10-17T02:30:33;11.10;99.90
70475;DHT22;57944;48.722;9.316;2022-10-17T02:33:12;11.10;99.90
70475;DHT22;57944;48.722;9.316;2022-10-17T02:35:52;11.20;99.90
70475;DHT22;57944;48.722;9.316;2022-10-17T02:38:28;11.40;99.90
70475;DHT22;57944;48.722;9.316;2022-10-17T02:41:01;11.30;99.90
70475;DHT22;57944;48.722;9.316;2022-10-17T02:43:33;11.30;99.90
70475;DHT22;57944;48.722;9.316;2022-10-17T02:46:05;11.20;99.90
70475;DHT22;57944;48.722;9.316;2022-10-17T02:48:39;11.20;99.90
70475;DHT22;57944;48.722;9.316;2022-10-17T02:51:21;11.20;99.90
70475;DHT22;57944;48.722;9.316;2022-10-17T02:54:03;11.20;99.90
70475;DHT22;57944;48.722;9.316;2022-10-17T02:56:42;11.00;99.90
70475;DHT22;57944;48.722;9.316;2022-10-17T02:59:21;11.10;99.90
70475;DHT22;57944;48.722;9.316;2022-10-17T03:01:53;11.10;99.90
70475;DHT22;57944;48.722;9.316;2022-10-17T03:04:24;11.20;99.90
70475;DHT22;57944;48.722;9.316;2022-10-17T03:06:56;11.30;99.90
70475;DHT22;57944;48.722;9.316;2022-10-17T03:09:26;11.30;99.90
70475;DHT22;57944;48.722;9.316;2022-10-17T03:11:56;11.40;99.90
70475;DHT22;57944;48.722;9.316;2022-10-17T03:14:27;11.50;99.90
70475;DHT22;57944;48.722;9.316;2022-10-17T03:16:57;11.40;99.90
70475;DHT22;57944;48.722;9.316;2022-10-17T03:19:27;11.40;99.90
70475;DHT22;57944;48.722;9.316;2022-10-17T03:22:00;11.50;99.90
70475;DHT22;57944;48.722;9.316;2022-10-17T03:24:32;11.40;99.90
70475;DHT22;57944;48.722;9.316;2022-10-17T03:27:03;11.20;99.90
70475;DHT22;57944;48.722;9.316;2022-10-17T03:29:33;11.20;99.90
70475;DHT22;57944;48.722;9.316;2022-10-17T03:32:05;11.20;99.90
70475;DHT22;57944;48.722;9.316;2022-10-17T03:34:36;11.00;99.90
70475;DHT22;57944;48.722;9.316;2022-10-17T03:37:09;10.90;99.90
70475;DHT22;57944;48.722;9.316;2022-10-17T03:39:40;10.90;99.90
70475;DHT22;57944;48.722;9.316;2022-10-17T03:42:10;10.80;99.90
70475;DHT22;57944;48.722;9.316;2022-10-17T03:44:40;10.70;99.90
70475;DHT22;57944;48.722;9.316;2022-10-17T03:47:10;10.80;99.90
70475;DHT22;57944;48.722;9.316;2022-10-17T03:49:40;10.80;99.90
70475;DHT22;57944;48.722;9.316;2022-10-17T03:52:14;11.00;99.90
70475;DHT22;57944;48.722;9.316;2022-10-17T03:54:45;11.00;99.90
70475;DHT22;57944;48.722;9.316;2022-10-17T03:57:15;11.30;99.90
70475;DHT22;57944;48.722;9.316;2022-10-17T03:59:45;11.20;99.90
70475;DHT22;57944;48.722;9.316;2022-10-17T04:02:18;10.90;99.90
70475;DHT22;57944;48.722;9.316;2022-10-17T04:04:49;10.80;99.90
70475;DHT22;57944;48.722;9.316;2022-10-17T04:07:21;10.70;99.90
70475;DHT22;57944;48.722;9.316;2022-10-17T04:10:13;10.60;99.90
70475;DHT22;57944;48.722;9.316;2022-10-17T04:12:43;10.60;99.90
70475;DHT22;57944;48.722;9.316;2022-10-17T04:15:14;10.60;99.90
70475;DHT22;57944;48.722;9.316;2022-10-17T04:17:44;10.50;99.90
70475;DHT22;57944;48.722;9.316;2022-10-17T04:20:15;10.50;99.90
70475;DHT22;57944;48.722;9.316;2022-10-17T04:22:48;10.50;99.90
70475;DHT22;57944;48.722;9.316;2022-10-17T04:25:18;10.40;99.90
70475;DHT22;57944;48.722;9.316;2022-10-17T04:27:50;10.30;99.90
70475;DHT22;57944;48.722;9.316;2022-10-17T04:30:20;10.30;99.90
70475;DHT22;57944;48.722;9.316;2022-10-17T04:32:50;10.30;99.90
70475;DHT22;57944;48.722;9.316;2022-10-17T04:35:21;10.30;99.90
70475;DHT22;57944;48.722;9.316;2022-10-17T04:38:01;10.40;99.90
70475;DHT22;57944;48.722;9.316;2022-10-17T04:40:31;10.30;99.90
70475;DHT22;57944;48.722;9.316;2022-10-17T04:43:02;10.30;99.90
70475;DHT22;57944;48.722;9.316;2022-10-17T04:45:35;10.30;99.90
70475;DHT22;57944;48.722;9.316;2022-10-17T04:48:05;10.20;99.90
70475;DHT22;57944;48.722;9.316;2022-10-17T04:50:36;10.20;99.90
70475;DHT22;57944;48.722;9.316;2022-10-17T04:53:24;10.20;99.90
70475;DHT22;57944;48.722;9.316;2022-10-17T04:55:54;10.20;99.90
70475;DHT22;57944;48.722;9.316;2022-10-17T04:58:26;10.20;99.90
70475;DHT22;57944;48.722;9.316;2022-10-17T05:00:57;10.00;99.90
70475;DHT22;57944;48.722;9.316;2022-10-17T05:03:28;10.10;99.90
70475;DHT22;57944;48.722;9.316;2022-10-17T05:06:02;10.20;99.90
70475;DHT22;57944;48.722;9.316;2022-10-17T05:08:37;10.20;99.90
70475;DHT22;57944;48.722;9.316;2022-10-17T05:11:15;10.30;99.90
70475;DHT22;57944;48.722;9.316;2022-10-17T05:13:49;10.20;99.90
70475;DHT22;57944;48.722;9.316;2022-10-17T05:16:21;10.30;99.90
70475;DHT22;57944;48.722;9.316;2022-10-17T05:18:53;10.30;99.90
70475;DHT22;57944;48.722;9.316;2022-10-17T05:21:30;10.40;99.90
70475;DHT22;57944;48.722;9.316;2022-10-17T05:24:08;10.40;99.90
70475;DHT22;57944;48.722;9.316;2022-10-17T05:26:39;10.30;99.90
70475;DHT22;57944;48.722;9.316;2022-10-17T05:29:09;10.30;99.90
70475;DHT22;57944;48.722;9.316;2022-10-17T05:31:44;10.30;99.90
70475;DHT22;57944;48.722;9.316;2022-10-17T05:34:14;10.30;99.90
70475;DHT22;57944;48.722;9.316;2022-10-17T05:36:45;10.40;99.90
70475;DHT22;57944;48.722;9.316;2022-10-17T05:39:21;10.40;99.90
70475;DHT22;57944;48.722;9.316;2022-10-17T05:41:51;10.50;99.90
70475;DHT22;57944;48.722;9.316;2022-10-17T05:44:22;10.60;99.90
70475;DHT22;57944;48.722;9.316;2022-10-17T05:46:55;10.60;99.90
70475;DHT22;57944;48.722;9.316;2022-10-17T05:49:26;10.60;99.90
70475;DHT22;57944;48.722;9.316;2022-10-17T05:52:12;10.60;99.90
70475;DHT22;57944;48.722;9.316;2022-10-17T05:55:02;10.60;99.90
70475;DHT22;57944;48.722;9.316;2022-10-17T05:57:32;10.60;99.90
70475;DHT22;57944;48.722;9.316;2022-10-17T06:00:07;10.50;99.90
70475;DHT22;57944;48.722;9.316;2022-10-17T06:02:43;10.40;99.90
70475;DHT22;57944;48.722;9.316;2022-10-17T06:05:16;10.50;99.90
70475;DHT22;57944;48.722;9.316;2022-10-17T06:07:46;10.60;99.90
70475;DHT22;57944;48.722;9.316;2022-10-17T06:10:22;10.60;99.90
70475;DHT22;57944;48.722;9.316;2022-10-17T06:12:52;10.70;99.90
70475;DHT22;57944;48.722;9.316;2022-10-17T06:15:24;10.80;99.90
70475;DHT22;57944;48.722;9.316;2022-10-17T06:18:00;10.70;99.90
70475;DHT22;57944;48.722;9.316;2022-10-17T06:20:31;10.80;99.90
70475;DHT22;57944;48.722;9.316;2022-10-17T06:23:01;10.80;99.90
70475;DHT22;57944;48.722;9.316;2022-10-17T06:25:49;11.00;99.90
70475;DHT22;57944;48.722;9.316;2022-10-17T06:28:19;11.30;99.90
70475;DHT22;57944;48.722;9.316;2022-10-17T06:30:49;11.70;99.90
70475;DHT22;57944;48.722;9.316;2022-10-17T06:33:19;12.10;99.90
70475;DHT22;57944;48.722;9.316;2022-10-17T06:35:50;12.50;99.90
70475;DHT22;57944;48.722;9.316;2022-10-17T06:38:22;12.80;99.90
70475;DHT22;57944;48.722;9.316;2022-10-17T06:41:04;13.00;99.90
70475;DHT22;57944;48.722;9.316;2022-10-17T06:43:36;13.40;99.90
70475;DHT22;57944;48.722;9.316;2022-10-17T06:46:26;13.70;99.90
70475;DHT22;57944;48.722;9.316;2022-10-17T06:48:59;13.90;99.90
70475;DHT22;57944;48.722;9.316;2022-10-17T06:51:47;13.90;99.90
70475;DHT22;57944;48.722;9.316;2022-10-17T06:54:21;13.90;99.90
70475;DHT22;57944;48.722;9.316;2022-10-17T06:57:06;13.90;99.90
70475;DHT22;57944;48.722;9.316;2022-10-17T06:59:51;13.90;99.90
70475;DHT22;57944;48.722;9.316;2022-10-17T07:02:29;14.00;99.90
70475;DHT22;57944;48.722;9.316;2022-10-17T07:05:01;14.00;99.90
70475;DHT22;57944;48.722;9.316;2022-10-17T07:07:33;14.00;99.90
70475;DHT22;57944;48.722;9.316;2022-10-17T07:10:09;14.00;99.90
70475;DHT22;57944;48.722;9.316;2022-10-17T07:12:42;14.10;99.90
70475;DHT22;57944;48.722;9.316;2022-10-17T07:15:12;14.10;99.90
70475;DHT22;57944;48.722;9.316;2022-10-17T07:17:47;14.10;99.90
70475;DHT22;57944;48.722;9.316;2022-10-17T07:20:18;14.10;99.90
70475;DHT22;57944;48.722;9.316;2022-10-17T07:22:48;14.10;99.90
70475;DHT22;57944;48.722;9.316;2022-10-17T07:25:18;14.20;99.90
70475;DHT22;57944;48.722;9.316;2022-10-17T07:27:55;14.20;99.90
70475;DHT22;57944;48.722;9.316;2022-10-17T07:30:26;14.20;99.90
70475;DHT22;57944;48.722;9.316;2022-10-17T07:33:01;14.10;99.90
70475;DHT22;57944;48.722;9.316;2022-10-17T07:35:31;14.00;99.90
70475;DHT22;57944;48.722;9.316;2022-10-17T07:38:02;14.10;99.90
70475;DHT22;57944;48.722;9.316;2022-10-17T07:40:33;14.10;99.90
70475;DHT22;57944;48.722;9.316;2022-10-17T07:43:06;14.10;99.90
70475;DHT22;57944;48.722;9.316;2022-10-17T07:45:36;14.20;99.90
70475;DHT22;57944;48.722;9.316;2022-10-17T07:48:06;14.30;99.90
70475;DHT22;57944;48.722;9.316;2022-10-17T07:50:37;14.40;99.90
70475;DHT22;57944;48.722;9.316;2022-10-17T07:53:08;14.50;99.90
70475;DHT22;57944;48.722;9.316;2022-10-17T07:55:39;14.50;99.90
70475;DHT22;57944;48.722;9.316;2022-10-17T07:58:13;14.70;99.90
70475;DHT22;57944;48.722;9.316;2022-10-17T08:00:45;14.90;99.90
70475;DHT22;57944;48.722;9.316;2022-10-17T08:03:17;15.10;99.90
70475;DHT22;57944;48.722;9.316;2022-10-17T08:05:47;15.30;99.90
70475;DHT22;57944;48.722;9.316;2022-10-17T08:08:17;15.50;99.90
70475;DHT22;57944;48.722;9.316;2022-10-17T08:10:47;15.70;99.90
70475;DHT22;57944;48.722;9.316;2022-10-17T08:13:20;15.90;99.90
70475;DHT22;57944;48.722;9.316;2022-10-17T08:15:50;15.80;99.90
70475;DHT22;57944;48.722;9.316;2022-10-17T08:18:20;16.00;99.90
70475;DHT22;57944;48.722;9.316;2022-10-17T08:20:50;16.10;99.90
70475;DHT22;57944;48.722;9.316;2022-10-17T08:23:26;16.10;99.90
70475;DHT22;57944;48.722;9.316;2022-10-17T08:25:58;16.20;99.90
70475;DHT22;57944;48.722;9.316;2022-10-17T08:28:33;16.30;99.90
70475;DHT22;57944;48.722;9.316;2022-10-17T08:31:05;16.30;99.90
70475;DHT22;57944;48.722;9.316;2022-10-17T08:33:37;16.40;99.90
70475;DHT22;57944;48.722;9.316;2022-10-17T08:36:08;16.50;99.90
70475;DHT22;57944;48.722;9.316;2022-10-17T08:38:41;16.70;99.90
70475;DHT22;57944;48.722;9.316;2022-10-17T08:41:29;16.70;99.90
70475;DHT22;57944;48.722;9.316;2022-10-17T08:44:21;16.80;99.90
70475;DHT22;57944;48.722;9.316;2022-10-17T08:47:04;16.80;99.90
70475;DHT22;57944;48.722;9.316;2022-10-17T08:49:44;16.90;99.90
70475;DHT22;57944;48.722;9.316;2022-10-17T08:52:34;17.00;99.90
70475;DHT22;57944;48.722;9.316;2022-10-17T08:55:13;17.10;99.90
70475;DHT22;57944;48.722;9.316;2022-10-17T08:58:12;17.10;99.90
70475;DHT22;57944;48.722;9.316;2022-10-17T09:00:54;17.30;99.90
70475;DHT22;57944;48.722;9.316;2022-10-17T09:03:49;17.70;99.90
70475;DHT22;57944;48.722;9.316;2022-10-17T09:06:30;18.10;99.90
70475;DHT22;57944;48.722;9.316;2022-10-17T09:09:14;18.30;99.90
70475;DHT22;57944;48.722;9.316;2022-10-17T09:12:04;18.40;99.90
70475;DHT22;57944;48.722;9.316;2022-10-17T09:15:00;18.40;99.90
70475;DHT22;57944;48.722;9.316;2022-10-17T09:17:49;18.60;99.90
70475;DHT22;57944;48.722;9.316;2022-10-17T09:20:24;18.90;99.90
70475;DHT22;57944;48.722;9.316;2022-10-17T09:22:59;19.20;99.90
70475;DHT22;57944;48.722;9.316;2022-10-17T09:25:40;19.50;99.90
70475;DHT22;57944;48.722;9.316;2022-10-17T09:28:16;19.70;99.90
70475;DHT22;57944;48.722;9.316;2022-10-17T09:30:54;20.00;99.90
70475;DHT22;57944;48.722;9.316;2022-10-17T09:33:36;20.20;99.90
70475;DHT22;57944;48.722;9.316;2022-10-17T09:36:23;20.30;99.90
70475;DHT22;57944;48.722;9.316;2022-10-17T09:38:59;20.40;99.90
70475;DHT22;57944;48.722;9.316;2022-10-17T09:41:35;20.60;99.90
70475;DHT22;57944;48.722;9.316;2022-10-17T09:44:16;20.90;99.90
70475;DHT22;57944;48.722;9.316;2022-10-17T09:47:09;21.20;99.90
70475;DHT22;57944;48.722;9.316;2022-10-17T09:49:52;21.20;99.90
70475;DHT22;57944;48.722;9.316;2022-10-17T09:52:26;21.10;99.90
70475;DHT22;57944;48.722;9.316;2022-10-17T09:55:02;21.00;99.90
70475;DHT22;57944;48.722;9.316;2022-10-17T09:57:52;20.80;99.90
70475;DHT22;57944;48.722;9.316;2022-10-17T10:00:26;20.80;99.90
70475;DHT22;57944;48.722;9.316;2022-10-17T10:03:16;20.90;99.90
70475;DHT22;57944;48.722;9.316;2022-10-17T10:06:02;21.10;99.90
70475;DHT22;57944;48.722;9.316;2022-10-17T10:08:35;21.40;99.90
70475;DHT22;57944;48.722;9.316;2022-10-17T10:11:16;21.40;99.90
70475;DHT22;57944;48.722;9.316;2022-10-17T10:13:48;21.40;99.90
70475;DHT22;57944;48.722;9.316;2022-10-17T10:16:30;21.40;99.90
70475;DHT22;57944;48.722;9.316;2022-10-17T10:19:18;21.50;99.90
70475;DHT22;57944;48.722;9.316;2022-10-17T10:21:59;21.50;99.90
70475;DHT22;57944;48.722;9.316;2022-10-17T10:24:31;21.70;99.90
70475;DHT22;57944;48.722;9.316;2022-10-17T10:27:02;21.70;99.90
70475;DHT22;57944;48.722;9.316;2022-10-17T10:29:36;22.00;99.90
70475;DHT22;57944;48.722;9.316;2022-10-17T10:32:18;22.00;99.90
70475;DHT22;57944;48.722;9.316;2022-10-17T10:34:53;22.00;99.90
70475;DHT22;57944;48.722;9.316;2022-10-17T10:37:32;22.10;99.90
70475;DHT22;57944;48.722;9.316;2022-10-17T10:40:16;22.20;99.90
70475;DHT22;57944;48.722;9.316;2022-10-17T10:42:51;22.40;99.90
70475;DHT22;57944;48.722;9.316;2022-10-17T10:45:40;22.70;99.90
70475;DHT22;57944;48.722;9.316;2022-10-17T10:48:19;22.80;99.90
70475;DHT22;57944;48.722;9.316;2022-10-17T10:50:54;22.90;99.90
70475;DHT22;57944;48.722;9.316;2022-10-17T10:53:41;23.20;99.90
70475;DHT22;57944;48.722;9.316;2022-10-17T10:56:17;23.40;99.90
70475;DHT22;57944;48.722;9.316;2022-10-17T10:58:53;23.60;99.90
70475;DHT22;57944;48.722;9.316;2022-10-17T11:01:32;23.50;99.90
70475;DHT22;57944;48.722;9.316;2022-10-17T11:04:29;23.40;99.90
70475;DHT22;57944;48.722;9.316;2022-10-17T11:07:09;23.10;99.90
70475;DHT22;57944;48.722;9.316;2022-10-17T11:09:51;23.00;99.90
70475;DHT22;57944;48.722;9.316;2022-10-17T11:12:27;23.00;99.90
70475;DHT22;57944;48.722;9.316;2022-10-17T11:15:08;23.10;99.90
70475;DHT22;57944;48.722;9.316;2022-10-17T11:17:54;23.00;99.90
70475;DHT22;57944;48.722;9.316;2022-10-17T11:20:37;23.10;99.90
70475;DHT22;57944;48.722;9.316;2022-10-17T11:23:16;23.10;99.90
70475;DHT22;57944;48.722;9.316;2022-10-17T11:25:53;22.90;99.90
70475;DHT22;57944;48.722;9.316;2022-10-17T11:28:29;22.80;99.90
70475;DHT22;57944;48.722;9.316;2022-10-17T11:31:02;22.70;99.90
70475;DHT22;57944;48.722;9.316;2022-10-17T11:33:43;22.50;99.90
70475;DHT22;57944;48.722;9.316;2022-10-17T11:36:17;22.10;99.90
70475;DHT22;57944;48.722;9.316;2022-10-17T11:38:53;22.10;99.90
70475;DHT22;57944;48.722;9.316;2022-10-17T11:41:34;22.30;99.90
70475;DHT22;57944;48.722;9.316;2022-10-17T11:44:18;22.40;99.90
70475;DHT22;57944;48.722;9.316;2022-10-17T11:46:55;22.50;99.90
70475;DHT22;57944;48.722;9.316;2022-10-17T11:49:33;22.30;99.90
70475;DHT22;57944;48.722;9.316;2022-10-17T11:52:21;22.30;99.90
70475;DHT22;57944;48.722;9.316;2022-10-17T11:55:21;22.20;99.90
70475;DHT22;57944;48.722;9.316;2022-10-17T11:58:15;21.90;99.90
70475;DHT22;57944;48.722;9.316;2022-10-17T12:01:22;22.10;99.90
70475;DHT22;57944;48.722;9.316;2022-10-17T12:04:16;22.10;99.90
70475;DHT22;57944;48.722;9.316;2022-10-17T12:07:03;22.10;99.90
70475;DHT22;57944;48.722;9.316;2022-10-17T12:09:50;22.40;99.90
70475;DHT22;57944;48.722;9.316;2022-10-17T12:12:26;22.20;99.90
70475;DHT22;57944;48.722;9.316;2022-10-17T12:15:29;22.10;99.90
70475;DHT22;57944;48.722;9.316;2022-10-17T12:18:01;22.50;99.90
70475;DHT22;57944;48.722;9.316;2022-10-17T12:20:34;22.80;99.90
70475;DHT22;57944;48.722;9.316;2022-10-17T12:23:22;23.10;99.90
70475;DHT22;57944;48.722;9.316;2022-10-17T12:25:58;23.40;99.90
70475;DHT22;57944;48.722;9.316;2022-10-17T12:28:32;23.50;99.90
70475;DHT22;57944;48.722;9.316;2022-10-17T12:31:22;23.70;99.90
70475;DHT22;57944;48.722;9.316;2022-10-17T12:34:01;23.90;99.90
70475;DHT22;57944;48.722;9.316;2022-10-17T12:36:37;24.00;99.90
70475;DHT22;57944;48.722;9.316;2022-10-17T12:42:46;24.00;99.90
70475;DHT22;57944;48.722;9.316;2022-10-17T12:45:43;24.20;99.90
70475;DHT22;57944;48.722;9.316;2022-10-17T12:54:57;24.00;99.90
70475;DHT22;57944;48.722;9.316;2022-10-17T12:57:47;24.00;99.90
70475;DHT22;57944;48.722;9.316;2022-10-17T13:00:28;24.00;99.90
70475;DHT22;57944;48.722;9.316;2022-10-17T13:03:10;24.20;99.90
70475;DHT22;57944;48.722;9.316;2022-10-17T13:05:50;24.30;99.90
70475;DHT22;57944;48.722;9.316;2022-10-17T13:08:26;24.30;99.90
70475;DHT22;57944;48.722;9.316;2022-10-17T13:11:00;24.10;99.90
70475;DHT22;57944;48.722;9.316;2022-10-17T13:13:36;24.20;99.90
70475;DHT22;57944;48.722;9.316;2022-10-17T13:16:26;24.30;99.90
70475;DHT22;57944;48.722;9.316;2022-10-17T13:18:58;24.50;99.90
70475;DHT22;57944;48.722;9.316;2022-10-17T13:21:32;24.50;99.90
70475;DHT22;57944;48.722;9.316;2022-10-17T13:24:21;24.40;99.90
70475;DHT22;57944;48.722;9.316;2022-10-17T13:26:52;24.30;99.90
70475;DHT22;57944;48.722;9.316;2022-10-17T13:29:22;24.50;99.90
70475;DHT22;57944;48.722;9.316;2022-10-17T13:31:56;24.40;99.90
70475;DHT22;57944;48.722;9.316;2022-10-17T13:34:31;24.50;99.90
70475;DHT22;57944;48.722;9.316;2022-10-17T13:37:06;24.60;99.90
70475;DHT22;57944;48.722;9.316;2022-10-17T13:39:42;24.60;99.90
70475;DHT22;57944;48.722;9.316;2022-10-17T13:42:24;24.70;99.20
70475;DHT22;57944;48.722;9.316;2022-10-17T13:44:59;24.80;99.70
70475;DHT22;57944;48.722;9.316;2022-10-17T13:47:33;24.90;99.20
70475;DHT22;57944;48.722;9.316;2022-10-17T13:50:06;24.80;99.20
70475;DHT22;57944;48.722;9.316;2022-10-17T13:53:18;24.80;98.90
70475;DHT22;57944;48.722;9.316;2022-10-17T13:55:58;24.80;99.10
70475;DHT22;57944;48.722;9.316;2022-10-17T13:58:51;24.70;99.10
70475;DHT22;57944;48.722;9.316;2022-10-17T14:01:24;24.50;99.90
70475;DHT22;57944;48.722;9.316;2022-10-17T14:03:56;24.20;99.90
70475;DHT22;57944;48.722;9.316;2022-10-17T14:06:40;24.10;99.90
70475;DHT22;57944;48.722;9.316;2022-10-17T14:09:21;24.00;99.90
70475;DHT22;57944;48.722;9.316;2022-10-17T14:12:00;23.80;99.90
70475;DHT22;57944;48.722;9.316;2022-10-17T14:14:31;23.80;99.90
70475;DHT22;57944;48.722;9.316;2022-10-17T14:17:24;23.70;99.90
70475;DHT22;57944;48.722;9.316;2022-10-17T14:19:59;23.60;99.90
70475;DHT22;57944;48.722;9.316;2022-10-17T14:22:54;23.70;99.90
70475;DHT22;57944;48.722;9.316;2022-10-17T14:25:47;23.60;99.90
70475;DHT22;57944;48.722;9.316;2022-10-17T14:28:21;23.50;99.90
70475;DHT22;57944;48.722;9.316;2022-10-17T14:30:52;23.50;99.90
70475;DHT22;57944;48.722;9.316;2022-10-17T14:33:26;23.50;99.90
70475;DHT22;57944;48.722;9.316;2022-10-17T14:36:02;23.60;99.90
70475;DHT22;57944;48.722;9.316;2022-10-17T14:38:33;23.50;99.90
70475;DHT22;57944;48.722;9.316;2022-10-17T14:41:14;23.40;99.90
70475;DHT22;57944;48.722;9.316;2022-10-17T14:44:15;23.30;99.90
70475;DHT22;57944;48.722;9.316;2022-10-17T14:46:53;23.20;99.90
70475;DHT22;57944;48.722;9.316;2022-10-17T14:49:37;23.30;99.90
70475;DHT22;57944;48.722;9.316;2022-10-17T14:52:12;23.30;99.90
70475;DHT22;57944;48.722;9.316;2022-10-17T14:55:20;23.30;99.90
70475;DHT22;57944;48.722;9.316;2022-10-17T14:57:54;23.20;99.90
70475;DHT22;57944;48.722;9.316;2022-10-17T15:00:25;23.20;99.90
70475;DHT22;57944;48.722;9.316;2022-10-17T15:02:55;23.00;99.90
70475;DHT22;57944;48.722;9.316;2022-10-17T15:05:26;23.10;99.90
70475;DHT22;57944;48.722;9.316;2022-10-17T15:07:56;23.10;99.90
70475;DHT22;57944;48.722;9.316;2022-10-17T15:10:34;23.00;99.90
70475;DHT22;57944;48.722;9.316;2022-10-17T15:13:11;22.90;99.90
70475;DHT22;57944;48.722;9.316;2022-10-17T15:15:54;22.80;99.90
70475;DHT22;57944;48.722;9.316;2022-10-17T15:18:24;22.80;99.90
70475;DHT22;57944;48.722;9.316;2022-10-17T15:20:54;22.80;99.90
70475;DHT22;57944;48.722;9.316;2022-10-17T15:23:32;22.80;99.90
70475;DHT22;57944;48.722;9.316;2022-10-17T15:26:02;22.80;99.90
70475;DHT22;57944;48.722;9.316;2022-10-17T15:28:43;22.80;99.90
70475;DHT22;57944;48.722;9.316;2022-10-17T15:31:15;23.00;99.90
70475;DHT22;57944;48.722;9.316;2022-10-17T15:33:47;23.00;99.90
70475;DHT22;57944;48.722;9.316;2022-10-17T15:36:19;23.00;99.90
70475;DHT22;57944;48.722;9.316;2022-10-17T15:38:53;22.90;99.90
70475;DHT22;57944;48.722;9.316;2022-10-17T15:41:29;22.80;99.90
70475;DHT22;57944;48.722;9.316;2022-10-17T15:44:03;22.80;99.90
70475;DHT22;57944;48.722;9.316;2022-10-17T15:46:34;22.70;99.90
70475;DHT22;57944;48.722;9.316;2022-10-17T15:49:06;22.70;99.90
70475;DHT22;57944;48.722;9.316;2022-10-17T15:51:40;22.60;99.90
70475;DHT22;57944;48.722;9.316;2022-10-17T15:54:11;22.50;99.90
70475;DHT22;57944;48.722;9.316;2022-10-17T15:56:41;22.40;99.90
70475;DHT22;57944;48.722;9.316;2022-10-17T15:59:24;22.30;99.90
70475;DHT22;57944;48.722;9.316;2022-10-17T16:02:00;22.00;99.90
70475;DHT22;57944;48.722;9.316;2022-10-17T16:04:30;22.00;99.90
70475;DHT22;57944;48.722;9.316;2022-10-17T16:07:00;22.00;99.90
70475;DHT22;57944;48.722;9.316;2022-10-17T16:09:31;22.00;99.90
70475;DHT22;57944;48.722;9.316;2022-10-17T16:12:04;21.90;99.90
70475;DHT22;57944;48.722;9.316;2022-10-17T16:14:42;21.90;99.90
70475;DHT22;57944;48.722;9.316;2022-10-17T16:17:13;21.70;99.90
70475;DHT22;57944;48.722;9.316;2022-10-17T16:19:44;21.60;99.90
70475;DHT22;57944;48.722;9.316;2022-10-17T16:22:22;21.40;99.90
70475;DHT22;57944;48.722;9.316;2022-10-17T16:24:58;21.30;99.90
70475;DHT22;57944;48.722;9.316;2022-10-17T16:27:36;21.00;99.90
70475;DHT22;57944;48.722;9.316;2022-10-17T16:30:09;20.90;99.90
70475;DHT22;57944;48.722;9.316;2022-10-17T16:32:40;20.70;99.90
70475;DHT22;57944;48.722;9.316;2022-10-17T16:35:13;20.50;99.90
70475;DHT22;57944;48.722;9.316;2022-10-17T16:37:47;20.40;99.90
70475;DHT22;57944;48.722;9.316;2022-10-17T16:40:17;20.20;99.90
70475;DHT22;57944;48.722;9.316;2022-10-17T16:42:47;20.00;99.90
70475;DHT22;57944;48.722;9.316;2022-10-17T16:45:21;19.90;99.90
70475;DHT22;57944;48.722;9.316;2022-10-17T16:47:51;19.80;99.90